BH700 KNZY-
Flight info
| Callsign | BH700 |
|---|---|
| Flight time | N/A |
| Altitude | VFR |
| Route | VFR S |
| Aircraft | H60/M-VGD/C |
Departure
| Time | 2026-04-28 03:21 |
|---|---|
| Airport | North Island Naval Air Station-Halsey Field (KNZY) |
Arrival
| Time | N/A |
|---|---|
| Airport | - |
| Time | Latitude | Longitude | Altitude | Speed | Heading |
|---|---|---|---|---|---|
| 2026-04-28 03:20 | 32.70208 | -117.21184 | 27 ft | 0 kts | 196° |
| 2026-04-28 03:20 | 32.70167 | -117.21244 | 125 ft | 13 kts | 207° |
| 2026-04-28 03:21 | 32.70103 | -117.21287 | 275 ft | 17 kts | 213° |
| 2026-04-28 03:21 | 32.69872 | -117.21397 | 557 ft | 62 kts | 214° |
| 2026-04-28 03:21 | 32.69300 | -117.21719 | 655 ft | 115 kts | 210° |
| 2026-04-28 03:21 | 32.68463 | -117.22195 | 523 ft | 149 kts | 207° |
| 2026-04-28 03:22 | 32.67559 | -117.22751 | 741 ft | 143 kts | 210° |
| 2026-04-28 03:22 | 32.66689 | -117.23350 | 866 ft | 145 kts | 219° |
| 2026-04-28 03:22 | 32.66146 | -117.24313 | 896 ft | 136 kts | 270° |
| 2026-04-28 03:22 | 32.66687 | -117.25028 | 1158 ft | 123 kts | 347° |
| 2026-04-28 03:23 | 32.67607 | -117.25068 | 928 ft | 142 kts | 347° |
| 2026-04-28 03:23 | 32.68579 | -117.25214 | 849 ft | 140 kts | 348° |
| 2026-04-28 03:23 | 32.69535 | -117.25384 | 693 ft | 138 kts | 344° |
| 2026-04-28 03:23 | 32.70480 | -117.25597 | 552 ft | 135 kts | 347° |
| 2026-04-28 03:24 | 32.71405 | -117.25642 | 502 ft | 130 kts | 356° |
| 2026-04-28 03:24 | 32.72289 | -117.25549 | 480 ft | 127 kts | 359° |
| 2026-04-28 03:24 | 32.73169 | -117.25446 | 458 ft | 124 kts | 359° |
| 2026-04-28 03:24 | 32.74027 | -117.25340 | 494 ft | 124 kts | 1° |
| 2026-04-28 03:25 | 32.74703 | -117.25249 | 460 ft | 123 kts | 0° |
| 2026-04-28 03:26 | 32.75091 | -117.25195 | 466 ft | 123 kts | 1° |
| 2026-04-28 03:26 | 32.75934 | -117.25088 | 540 ft | 120 kts | 356° |
| 2026-04-28 03:26 | 32.76793 | -117.25152 | 495 ft | 127 kts | 346° |
| 2026-04-28 03:26 | 32.77675 | -117.25324 | 496 ft | 126 kts | 345° |
| 2026-04-28 03:27 | 32.78550 | -117.25485 | 501 ft | 127 kts | 346° |
| 2026-04-28 03:27 | 32.79385 | -117.25780 | 644 ft | 123 kts | 328° |
| 2026-04-28 03:27 | 32.80153 | -117.26302 | 701 ft | 130 kts | 327° |
| 2026-04-28 03:27 | 32.80588 | -117.26578 | 736 ft | 132 kts | 328° |
| 2026-04-28 03:29 | 32.81027 | -117.26841 | 775 ft | 134 kts | 330° |
| 2026-04-28 03:29 | 32.81882 | -117.27304 | 845 ft | 135 kts | 333° |
| 2026-04-28 03:29 | 32.82764 | -117.27726 | 887 ft | 136 kts | 335° |
| 2026-04-28 03:29 | 32.83679 | -117.27817 | 990 ft | 136 kts | 15° |
| 2026-04-28 03:30 | 32.84383 | -117.27034 | 982 ft | 140 kts | 43° |
| 2026-04-28 03:30 | 32.85136 | -117.26403 | 1077 ft | 130 kts | 18° |
| 2026-04-28 03:30 | 32.85923 | -117.26045 | 1058 ft | 111 kts | 9° |
| 2026-04-28 03:30 | 32.86629 | -117.25814 | 983 ft | 98 kts | 6° |
| 2026-04-28 03:31 | 32.87263 | -117.25637 | 1002 ft | 89 kts | 4° |
| 2026-04-28 03:31 | 32.87368 | -117.25610 | 1006 ft | 87 kts | 4° |
| 2026-04-28 03:32 | 32.87775 | -117.25507 | 1024 ft | 82 kts | 3° |
| 2026-04-28 03:32 | 32.88319 | -117.25385 | 1055 ft | 75 kts | 1° |
| 2026-04-28 03:32 | 32.88817 | -117.25304 | 1090 ft | 68 kts | 352° |
| 2026-04-28 03:32 | 32.89284 | -117.25324 | 1117 ft | 66 kts | 347° |
| 2026-04-28 03:33 | 32.89733 | -117.25377 | 1105 ft | 64 kts | 343° |
| 2026-04-28 03:33 | 32.90178 | -117.25481 | 891 ft | 65 kts | 335° |
| 2026-04-28 03:33 | 32.90581 | -117.25714 | 762 ft | 68 kts | 314° |
| 2026-04-28 03:33 | 32.90887 | -117.26245 | 676 ft | 85 kts | 290° |
| 2026-04-28 03:34 | 32.91085 | -117.26966 | 595 ft | 97 kts | 280° |
| 2026-04-28 03:34 | 32.91219 | -117.27791 | 502 ft | 105 kts | 276° |
| 2026-04-28 03:34 | 32.91353 | -117.28622 | 632 ft | 87 kts | 278° |
| 2026-04-28 03:34 | 32.91393 | -117.29127 | 1368 ft | 68 kts | 279° |
| 2026-04-28 03:35 | 32.91471 | -117.29971 | 1208 ft | 129 kts | 276° |
| 2026-04-28 03:35 | 32.91590 | -117.30958 | 1521 ft | 126 kts | 276° |
| 2026-04-28 03:35 | 32.91724 | -117.32086 | 1469 ft | 145 kts | 277° |
| 2026-04-28 03:35 | 32.91885 | -117.33384 | 913 ft | 175 kts | 276° |
| 2026-04-28 03:36 | 32.92067 | -117.34783 | 792 ft | 167 kts | 276° |
| 2026-04-28 03:36 | 32.92238 | -117.36118 | 772 ft | 161 kts | 276° |
| 2026-04-28 03:36 | 32.92403 | -117.37436 | 767 ft | 158 kts | 276° |
| 2026-04-28 03:36 | 32.92563 | -117.38716 | 762 ft | 156 kts | 276° |
| 2026-04-28 03:37 | 32.92706 | -117.40000 | 769 ft | 156 kts | 270° |
| 2026-04-28 03:37 | 32.92339 | -117.41213 | 781 ft | 158 kts | 242° |
| 2026-04-28 03:37 | 32.91811 | -117.42358 | 775 ft | 159 kts | 236° |
| 2026-04-28 03:37 | 32.91121 | -117.43402 | 772 ft | 160 kts | 231° |
| 2026-04-28 03:38 | 32.90431 | -117.44441 | 768 ft | 160 kts | 232° |
| 2026-04-28 03:38 | 32.89741 | -117.45472 | 766 ft | 160 kts | 231° |
| 2026-04-28 03:38 | 32.89020 | -117.46493 | 769 ft | 161 kts | 223° |
| 2026-04-28 03:38 | 32.88111 | -117.47297 | 768 ft | 162 kts | 217° |
| 2026-04-28 03:39 | 32.87201 | -117.48093 | 767 ft | 162 kts | 217° |
| 2026-04-28 03:39 | 32.86356 | -117.48787 | 1116 ft | 129 kts | 212° |
| 2026-04-28 03:39 | 32.85594 | -117.49309 | 981 ft | 121 kts | 207° |
| 2026-04-28 03:39 | 32.84882 | -117.49773 | 325 ft | 116 kts | 200° |
| 2026-04-28 03:40 | 32.84385 | -117.49998 | 84 ft | 94 kts | 197° |
| 2026-04-28 03:40 | 32.83886 | -117.50154 | 330 ft | 53 kts | 197° |
| 2026-04-28 03:40 | 32.83604 | -117.50185 | 283 ft | 29 kts | 187° |
| 2026-04-28 03:40 | 32.83477 | -117.50105 | 240 ft | 17 kts | 192° |
| 2026-04-28 03:41 | 32.83468 | -117.50047 | 256 ft | 19 kts | 197° |
| 2026-04-28 03:41 | 32.83485 | -117.49957 | 320 ft | 22 kts | 205° |
| 2026-04-28 03:41 | 32.83502 | -117.49892 | 484 ft | 11 kts | 236° |
| 2026-04-28 03:41 | 32.83292 | -117.49910 | 509 ft | 53 kts | 186° |
| 2026-04-28 03:42 | 32.82883 | -117.49854 | 517 ft | 60 kts | 169° |
| 2026-04-28 03:42 | 32.82531 | -117.49593 | 294 ft | 56 kts | 129° |
| 2026-04-28 03:42 | 32.82319 | -117.49271 | 193 ft | 38 kts | 122° |
| 2026-04-28 03:42 | 32.82166 | -117.49084 | 123 ft | 27 kts | 126° |
| 2026-04-28 03:43 | 32.82073 | -117.48932 | 100 ft | 20 kts | 143° |
| 2026-04-28 03:43 | 32.81983 | -117.48786 | 72 ft | 18 kts | 154° |
| 2026-04-28 03:43 | 32.81908 | -117.48653 | 70 ft | 19 kts | 140° |
| 2026-04-28 03:43 | 32.81833 | -117.48520 | 70 ft | 19 kts | 140° |
| 2026-04-28 03:44 | 32.81753 | -117.48382 | 70 ft | 19 kts | 124° |
| 2026-04-28 03:44 | 32.81677 | -117.48247 | 70 ft | 19 kts | 124° |
| 2026-04-28 03:44 | 32.81586 | -117.48096 | 113 ft | 35 kts | 141° |
| 2026-04-28 03:44 | 32.81320 | -117.47704 | 458 ft | 84 kts | 125° |
| 2026-04-28 03:45 | 32.81009 | -117.47186 | 772 ft | 111 kts | 133° |
| 2026-04-28 03:45 | 32.80707 | -117.46862 | 853 ft | 129 kts | 142° |
| 2026-04-28 03:45 | 32.79903 | -117.46162 | 895 ft | 155 kts | 142° |
| 2026-04-28 03:45 | 32.79039 | -117.45280 | 891 ft | 167 kts | 136° |
| 2026-04-28 03:46 | 32.78190 | -117.44344 | 1088 ft | 163 kts | 138° |
| 2026-04-28 03:46 | 32.77321 | -117.43475 | 1201 ft | 167 kts | 140° |
| 2026-04-28 03:46 | 32.76401 | -117.42593 | 1181 ft | 173 kts | 140° |
| 2026-04-28 03:46 | 32.75449 | -117.41685 | 1182 ft | 175 kts | 139° |
| 2026-04-28 03:47 | 32.74485 | -117.40769 | 1183 ft | 176 kts | 140° |
| 2026-04-28 03:47 | 32.73571 | -117.39796 | 1191 ft | 176 kts | 124° |
| 2026-04-28 03:47 | 32.72878 | -117.38599 | 1186 ft | 176 kts | 121° |
| 2026-04-28 03:47 | 32.72184 | -117.37402 | 1182 ft | 176 kts | 121° |
| 2026-04-28 03:48 | 32.71484 | -117.36191 | 1184 ft | 176 kts | 122° |
| 2026-04-28 03:48 | 32.70795 | -117.34995 | 1184 ft | 176 kts | 121° |
| 2026-04-28 03:48 | 32.70105 | -117.33795 | 1184 ft | 176 kts | 121° |
| 2026-04-28 03:48 | 32.69412 | -117.32591 | 1185 ft | 176 kts | 121° |
| 2026-04-28 03:49 | 32.68720 | -117.31386 | 1184 ft | 176 kts | 122° |
| 2026-04-28 03:49 | 32.68019 | -117.30168 | 1186 ft | 177 kts | 122° |
| 2026-04-28 03:49 | 32.67331 | -117.28970 | 1189 ft | 176 kts | 122° |
| 2026-04-28 03:49 | 32.66642 | -117.27771 | 1192 ft | 176 kts | 122° |
| 2026-04-28 03:50 | 32.65947 | -117.26562 | 1193 ft | 176 kts | 122° |
| 2026-04-28 03:50 | 32.65238 | -117.25344 | 962 ft | 177 kts | 121° |
| 2026-04-28 03:50 | 32.64651 | -117.24160 | 994 ft | 159 kts | 103° |
| 2026-04-28 03:50 | 32.64728 | -117.22932 | 1047 ft | 144 kts | 60° |
| 2026-04-28 03:51 | 32.65413 | -117.22169 | 1077 ft | 131 kts | 15° |
| 2026-04-28 03:51 | 32.66287 | -117.21990 | 1002 ft | 125 kts | 359° |
| 2026-04-28 03:51 | 32.67142 | -117.21891 | 881 ft | 123 kts | 1° |
| 2026-04-28 03:51 | 32.67985 | -117.21721 | 738 ft | 121 kts | 2° |
| 2026-04-28 03:52 | 32.68771 | -117.21565 | 685 ft | 103 kts | 1° |
| 2026-04-28 03:52 | 32.69399 | -117.21444 | 455 ft | 84 kts | 359° |
| 2026-04-28 03:52 | 32.69824 | -117.21322 | 187 ft | 40 kts | 6° |
| 2026-04-28 03:52 | 32.70003 | -117.21233 | 84 ft | 15 kts | 0° |
| 2026-04-28 03:53 | 32.70064 | -117.21223 | 68 ft | 1 kts | 12° |
| 2026-04-28 03:53 | 32.70054 | -117.21235 | 47 ft | 2 kts | 20° |
| 2026-04-28 03:53 | 32.70112 | -117.21219 | 36 ft | 9 kts | 26° |
| 2026-04-28 03:53 | 32.70122 | -117.21211 | 26 ft | 0 kts | 27° |